Time;durP1;ratioP1;P1;durP2;ratioP2;P2;SDS_P1;SDS_P2;PMS_P1;PMS_P2;Temp;Humidity;BMP_temperature;BMP_pressure;BME280_temperature;BME280_humidity;BME280_pressure;Samples;Min_cycle;Max_cycle;Signal;HPM_P1;HPM_P2
2021/06/03 00:01:04;;;;;;;14.23;7.47;;;;;;;15.40;73.08;101738.06;4941526;28;20085;-69
2021/06/03 00:03:30;;;;;;;13.05;8.23;;;;;;;15.42;72.74;101730.66;4957610;28;20049;-69
2021/06/03 00:06:02;;;;;;;10.48;7.10;;;;;;;15.40;72.73;101727.28;4957275;28;20476;-69
2021/06/03 00:08:28;;;;;;;12.63;7.43;;;;;;;15.40;72.86;101732.69;4957576;28;20038;-69
2021/06/03 00:10:58;;;;;;;10.68;6.82;;;;;;;15.36;72.97;101736.75;4974361;28;20045;-69
2021/06/03 00:13:27;;;;;;;11.45;7.10;;;;;;;15.37;72.74;101741.09;4957414;28;20039;-69
2021/06/03 00:15:53;;;;;;;11.25;6.80;;;;;;;15.37;72.71;101733.03;4973941;28;20453;-69
2021/06/03 00:18:19;;;;;;;9.43;6.88;;;;;;;15.41;71.89;101731.69;4974198;28;20080;-69
2021/06/03 00:20:45;;;;;;;14.27;8.27;;;;;;;15.40;71.98;101732.69;4974279;28;20405;-69
2021/06/03 00:23:11;;;;;;;11.52;6.65;;;;;;;15.39;71.98;101726.47;4956207;28;20342;-69
2021/06/03 00:25:36;;;;;;;14.25;7.90;;;;;;;15.30;72.69;101730.16;4974192;28;20070;-69
2021/06/03 00:28:03;;;;;;;9.60;7.30;;;;;;;15.24;72.98;101738.06;4956624;28;20047;-69
2021/06/03 00:30:28;;;;;;;;;;;;;;;15.24;72.98;101743.44;4957489;28;20073;-69
2021/06/03 00:32:53;;;;;;;;;;;;;;;15.12;73.53;101746.47;4974451;28;20316;-69
2021/06/03 00:35:20;;;;;;;10.17;6.97;;;;;;;15.04;73.72;101729.53;4956989;28;19913;-69
2021/06/03 00:37:46;;;;;;;9.45;7.10;;;;;;;14.93;74.12;101747.66;4956503;28;20038;-69
2021/06/03 00:40:13;;;;;;;8.85;7.20;;;;;;;14.89;74.26;101742.75;4956931;28;20030;-69
2021/06/03 00:42:40;;;;;;;8.00;6.88;;;;;;;14.91;74.35;101744.31;4956679;28;20089;-69
2021/06/03 00:45:09;;;;;;;11.85;7.93;;;;;;;14.94;73.94;101743.13;4973750;28;20038;-69
2021/06/03 00:47:35;;;;;;;12.70;7.00;;;;;;;14.91;74.13;101749.69;4973445;28;20062;-69
2021/06/03 00:50:00;;;;;;;11.18;7.53;;;;;;;14.93;73.98;101753.03;4956600;28;20035;-69
2021/06/03 00:52:26;;;;;;;11.38;7.40;;;;;;;14.94;73.76;101748.50;4940742;28;20097;-69
2021/06/03 00:54:52;;;;;;;12.90;7.85;;;;;;;14.89;73.82;101748.13;4956639;28;20035;-69
2021/06/03 00:57:17;;;;;;;8.30;6.40;;;;;;;14.88;74.13;101749.16;4973198;28;20039;-69
2021/06/03 00:59:46;;;;;;;11.65;7.70;;;;;;;14.88;73.84;101750.00;4956587;28;20495;-69
2021/06/03 01:02:11;;;;;;;8.90;7.07;;;;;;;14.83;74.56;101755.03;4940625;28;20054;-69
2021/06/03 01:04:38;;;;;;;8.60;7.28;;;;;;;14.77;74.75;101748.50;4956273;28;20563;-69
2021/06/03 01:07:03;;;;;;;10.40;6.97;;;;;;;14.77;74.67;101745.81;4956197;28;20034;-69
2021/06/03 01:09:37;;;;;;;13.05;8.23;;;;;;;14.81;74.46;101750.84;4973412;28;20058;-69
2021/06/03 01:12:12;;;;;;;9.07;7.20;;;;;;;14.78;74.52;101739.41;4956101;28;20046;-69
2021/06/03 01:14:43;;;;;;;11.43;7.55;;;;;;;14.72;74.23;101748.13;4973240;28;20042;-69
2021/06/03 01:17:10;;;;;;;9.93;7.00;;;;;;;14.73;74.12;101749.00;4955732;28;20063;-69
2021/06/03 01:19:38;;;;;;;11.88;7.03;;;;;;;14.69;74.28;101747.63;4956155;28;20031;-69
2021/06/03 01:22:14;;;;;;;10.55;7.57;;;;;;;14.67;74.44;101741.56;4956074;28;20085;-69
2021/06/03 01:24:50;;;;;;;9.98;7.18;;;;;;;14.66;74.54;101747.97;4973032;28;20035;-69
2021/06/03 01:27:19;;;;;;;11.38;6.90;;;;;;;14.65;74.53;101743.56;4955758;28;20528;-69
2021/06/03 01:29:55;;;;;;;18.55;8.73;;;;;;;14.66;74.41;101745.28;4956376;28;20037;-69
2021/06/03 01:32:21;;;;;;;9.05;7.00;;;;;;;14.63;74.13;101749.09;4955985;28;20077;-69
2021/06/03 01:34:49;;;;;;;8.95;7.32;;;;;;;14.58;74.38;101748.75;4972453;28;20073;-69
2021/06/03 01:37:16;;;;;;;12.10;6.88;;;;;;;14.55;74.27;101749.09;4955726;28;20504;-69
2021/06/03 01:39:44;;;;;;;10.38;7.57;;;;;;;14.55;74.50;101744.56;4955791;28;20065;-69
2021/06/03 01:42:10;;;;;;;10.90;7.18;;;;;;;14.53;74.54;101753.75;4955678;28;20035;-69
2021/06/03 01:44:36;;;;;;;10.52;6.85;;;;;;;14.47;74.57;101751.72;4955710;28;20035;-69
2021/06/03 01:47:05;;;;;;;8.48;7.22;;;;;;;14.48;74.36;101745.38;4955564;28;20376;-69
2021/06/03 01:49:32;;;;;;;11.68;7.13;;;;;;;14.45;74.55;101756.44;4955469;28;20091;-69
2021/06/03 01:52:00;;;;;;;9.00;6.78;;;;;;;14.38;74.95;101753.56;4972620;28;20110;-69
2021/06/03 01:54:28;;;;;;;12.65;7.47;;;;;;;14.36;75.05;101747.50;4955601;28;20042;-69
2021/06/03 01:56:56;;;;;;;9.15;6.75;;;;;;;14.28;75.27;101742.97;4955257;28;20350;-69
2021/06/03 01:59:23;;;;;;;9.75;7.75;;;;;;;14.23;75.33;101747.94;4939845;28;20038;-69
2021/06/03 02:01:52;;;;;;;11.30;8.00;;;;;;;14.23;75.13;101750.63;4956034;28;20053;-69
2021/06/03 02:04:17;;;;;;;11.88;8.20;;;;;;;14.25;75.31;101745.94;4972529;28;20682;-69
2021/06/03 02:06:44;;;;;;;12.27;8.23;;;;;;;14.16;75.52;101749.59;4955272;28;20130;-69
2021/06/03 02:09:11;;;;;;;9.73;7.05;;;;;;;14.20;75.28;101750.97;4955467;28;20034;-69
2021/06/03 02:11:39;;;;;;;10.32;7.60;;;;;;;14.17;75.09;101743.25;4939571;28;20031;-69
2021/06/03 02:14:08;;;;;;;11.23;7.53;;;;;;;14.20;74.76;101740.22;4955314;28;20054;-69
2021/06/03 02:16:54;;;;;;;10.68;7.45;;;;;;;14.20;75.02;101744.75;4955051;28;20031;-69
2021/06/03 02:19:28;;;;;;;16.25;8.05;;;;;;;14.16;75.39;101746.91;4972306;28;20027;-69
2021/06/03 02:21:56;;;;;;;10.18;7.63;;;;;;;14.12;75.26;101740.22;4955441;28;20035;-69
2021/06/03 02:24:22;;;;;;;12.20;7.57;;;;;;;14.07;75.44;101742.50;4955183;28;20039;-69
2021/06/03 02:26:50;;;;;;;10.95;7.93;;;;;;;14.03;75.28;101739.31;4955288;28;20027;-69
2021/06/03 02:29:16;;;;;;;10.40;8.15;;;;;;;14.01;75.34;101740.50;4955141;28;20041;-69
2021/06/03 02:31:57;;;;;;;13.25;8.00;;;;;;;14.03;75.37;101744.69;4972359;28;20058;-69
2021/06/03 02:34:25;;;;;;;13.27;8.23;;;;;;;14.01;75.26;101740.50;4955230;28;20093;-69
2021/06/03 02:36:51;;;;;;;9.55;8.13;;;;;;;13.97;75.38;101737.28;4954909;28;20495;-69
2021/06/03 02:39:17;;;;;;;11.43;8.30;;;;;;;13.96;75.43;101742.81;4972294;28;20035;-69
2021/06/03 02:41:42;;;;;;;9.82;7.72;;;;;;;13.92;75.82;101742.28;4939285;28;20301;-69
2021/06/03 02:44:10;;;;;;;11.50;8.30;;;;;;;13.89;75.79;101740.78;4972221;28;20034;-69
2021/06/03 02:46:36;;;;;;;11.05;8.43;;;;;;;13.86;76.15;101741.09;4941930;28;20063;-69
2021/06/03 02:49:04;;;;;;;11.32;8.07;;;;;;;13.84;76.04;101737.72;4958893;28;20051;-69
2021/06/03 02:51:30;;;;;;;9.77;7.65;;;;;;;13.84;75.90;101740.41;4958806;28;20479;-69
2021/06/03 02:53:57;;;;;;;12.60;8.35;;;;;;;13.81;76.14;101746.06;4942912;28;20039;-69
2021/06/03 02:56:29;;;;;;;11.88;8.95;;;;;;;13.78;76.45;101745.56;4958453;28;20031;-69
2021/06/03 02:58:55;;;;;;;10.10;7.90;;;;;;;13.78;76.47;101748.25;4975743;28;20053;-69
2021/06/03 03:01:21;;;;;;;12.20;8.50;;;;;;;13.80;76.15;101749.78;4958660;28;20431;-69
2021/06/03 03:03:48;;;;;;;12.82;8.50;;;;;;;13.80;75.97;101754.31;4958580;28;20031;-69
2021/06/03 03:06:14;;;;;;;13.20;9.02;;;;;;;13.80;76.00;101752.47;4958179;28;20467;-69
2021/06/03 03:08:42;;;;;;;14.05;8.38;;;;;;;13.77;76.17;101750.09;4958488;28;20519;-69
2021/06/03 03:11:09;;;;;;;14.10;9.25;;;;;;;13.76;76.34;101753.78;4958482;28;20031;-69
2021/06/03 03:13:39;;;;;;;16.15;9.27;;;;;;;13.76;76.54;101752.94;4943285;28;20118;-69
2021/06/03 03:16:05;;;;;;;9.50;8.15;;;;;;;13.73;76.39;101748.72;4975122;28;20425;-69
2021/06/03 03:18:31;;;;;;;11.45;8.48;;;;;;;13.75;76.33;101762.00;4975416;28;20046;-69
2021/06/03 03:20:56;;;;;;;11.63;9.47;;;;;;;13.73;76.09;101759.47;4958150;28;20086;-69
2021/06/03 03:23:22;;;;;;;9.23;7.30;;;;;;;13.78;76.16;101762.50;4958304;28;20042;-69
2021/06/03 03:25:53;;;;;;;11.15;8.15;;;;;;;13.80;76.10;101760.50;4958862;28;20133;-69
2021/06/03 03:28:18;;;;;;;13.68;8.70;;;;;;;13.84;75.86;101755.69;4958301;28;20106;-69
2021/06/03 03:30:45;;;;;;;10.43;8.65;;;;;;;13.86;75.66;101754.53;4975211;28;20151;-69
2021/06/03 03:33:18;;;;;;;11.35;8.35;;;;;;;13.81;75.72;101756.81;4943333;28;20070;-69
2021/06/03 03:35:46;;;;;;;11.20;8.20;;;;;;;13.86;75.68;101754.53;4957926;28;20038;-69
2021/06/03 03:38:14;;;;;;;10.85;9.13;;;;;;;13.89;75.28;101754.19;4957630;28;20433;-69
2021/06/03 03:40:40;;;;;;;11.00;7.43;;;;;;;13.86;75.61;101754.53;4942099;28;20114;-69
2021/06/03 03:43:07;;;;;;;10.70;8.90;;;;;;;13.93;75.28;101754.72;4957799;28;20030;-69
2021/06/03 03:45:34;;;;;;;12.30;8.30;;;;;;;14.00;74.72;101753.09;4958065;28;20038;-69
2021/06/03 03:48:01;;;;;;;12.07;8.43;;;;;;;14.09;74.50;101743.19;4957616;28;20448;-69
2021/06/03 03:50:27;;;;;;;13.00;8.20;;;;;;;14.10;74.39;101748.41;4957723;28;20041;-69
2021/06/03 03:52:52;;;;;;;14.17;8.87;;;;;;;14.11;73.78;101752.78;4941863;28;20043;-69
2021/06/03 03:55:18;;;;;;;12.68;8.48;;;;;;;14.21;73.38;101752.66;4941792;28;20039;-69
2021/06/03 03:57:46;;;;;;;10.52;7.43;;;;;;;14.24;73.57;101752.34;4957307;28;20035;-69
2021/06/03 04:00:15;;;;;;;12.88;9.05;;;;;;;14.28;72.91;101744.78;4957590;28;20039;-69
2021/06/03 04:02:44;;;;;;;10.98;7.72;;;;;;;14.27;73.16;101743.94;4957860;28;20412;-69
2021/06/03 04:05:17;;;;;;;12.73;7.60;;;;;;;14.31;72.50;101750.69;4942317;28;20042;-69
2021/06/03 04:07:43;;;;;;;13.18;8.32;;;;;;;14.41;71.88;101753.22;4941212;28;20023;-69
2021/06/03 04:10:13;;;;;;;10.23;7.65;;;;;;;14.48;71.67;101753.41;4957434;28;20078;-69
2021/06/03 04:12:39;;;;;;;13.02;7.57;;;;;;;14.49;71.65;101747.91;4974345;28;20038;-69
2021/06/03 04:15:08;;;;;;;10.23;7.70;;;;;;;14.41;72.15;101752.41;4957256;28;20042;-69
2021/06/03 04:17:34;;;;;;;12.57;7.97;;;;;;;14.44;71.64;101757.44;4956755;28;20047;-69
2021/06/03 04:19:59;;;;;;;13.23;9.20;;;;;;;14.47;71.97;101762.47;4974204;28;20485;-69
2021/06/03 04:22:25;;;;;;;13.53;7.77;;;;;;;14.52;71.65;101766.38;4974232;28;20365;-69
2021/06/03 04:24:51;;;;;;;11.75;6.57;;;;;;;14.65;70.70;101757.03;4974325;28;20716;-69
2021/06/03 04:27:16;;;;;;;9.40;7.50;;;;;;;14.72;70.91;101758.03;4973884;28;20364;-69
2021/06/03 04:29:42;;;;;;;11.98;7.60;;;;;;;14.76;70.30;101756.72;4974135;28;20038;-69
2021/06/03 04:32:08;;;;;;;12.73;7.57;;;;;;;14.84;70.22;101763.94;4974090;28;20575;-69
2021/06/03 04:34:34;;;;;;;9.05;7.45;;;;;;;14.87;69.96;101779.75;4956879;28;20049;-69
2021/06/03 04:37:00;;;;;;;;;;;;;;;15.00;69.63;101763.97;4941215;28;20043;-69
2021/06/03 04:39:27;;;;;;;11.10;7.28;;;;;;;14.98;70.65;101771.34;4956998;28;20005;-69
2021/06/03 04:41:53;;;;;;;9.23;7.70;;;;;;;14.83;70.40;101773.84;4973944;28;20077;-69
2021/06/03 04:44:18;;;;;;;14.60;7.60;;;;;;;15.06;69.96;101773.22;4956631;28;20074;-69
2021/06/03 04:46:44;;;;;;;9.77;7.80;;;;;;;15.23;69.27;101779.44;4973518;28;20038;-69
2021/06/03 04:49:09;;;;;;;11.47;7.07;;;;;;;15.21;69.01;101779.59;4973619;28;20333;-69
2021/06/03 04:51:38;;;;;;;9.20;6.77;;;;;;;15.39;68.71;101771.38;4973709;28;20053;-69
2021/06/03 04:54:04;;;;;;;12.18;7.53;;;;;;;15.33;68.70;101774.72;4973625;28;20047;-69
2021/06/03 04:56:29;;;;;;;8.05;6.60;;;;;;;15.49;68.39;101773.88;4973274;28;20050;-69
2021/06/03 04:58:54;;;;;;;8.70;6.80;;;;;;;15.63;68.16;101782.09;4956388;28;20074;-69
2021/06/03 05:01:20;;;;;;;10.27;7.37;;;;;;;15.72;67.48;101779.44;4940537;28;20026;-69
2021/06/03 05:03:45;;;;;;;8.03;6.70;;;;;;;15.86;66.44;101781.41;4973451;28;20034;-69
2021/06/03 05:06:11;;;;;;;10.37;7.43;;;;;;;15.79;66.15;101775.03;4956249;28;20031;-69
2021/06/03 05:08:36;;;;;;;11.23;6.65;;;;;;;15.90;66.74;101771.16;4955941;28;20034;-69
2021/06/03 05:11:02;;;;;;;9.77;6.90;;;;;;;16.07;65.76;101777.31;4956394;28;20585;-69
2021/06/03 05:13:30;;;;;;;10.13;6.60;;;;;;;16.30;65.12;101772.84;4973145;28;20034;-69
2021/06/03 05:15:55;;;;;;;7.63;6.45;;;;;;;16.34;64.53;101771.50;4939838;28;20679;-69
2021/06/03 05:18:21;;;;;;;12.83;6.80;;;;;;;16.61;64.65;101774.72;4973045;28;20038;-69
2021/06/03 05:20:47;;;;;;;8.87;6.57;;;;;;;16.65;62.88;101760.72;4956237;28;20034;-69
2021/06/03 05:23:14;;;;;;;9.60;6.68;;;;;;;16.56;63.83;101777.13;4973196;28;20293;-69
2021/06/03 05:25:39;;;;;;;8.00;6.32;;;;;;;16.80;63.21;101782.38;4973111;28;20052;-69
2021/06/03 05:28:04;;;;;;;14.37;6.77;;;;;;;17.01;62.62;101770.94;4939888;28;20436;-69
2021/06/03 05:30:30;;;;;;;9.07;6.50;;;;;;;17.28;60.92;101774.94;4939936;28;20034;-69
2021/06/03 05:32:56;;;;;;;9.52;7.10;;;;;;;17.45;60.18;101777.50;4955921;28;20049;-69
2021/06/03 05:35:23;;;;;;;10.65;6.38;;;;;;;18.28;58.54;101781.84;4939941;28;20045;-69
2021/06/03 05:37:49;;;;;;;8.32;6.18;;;;;;;18.71;56.81;101783.84;4939688;28;20034;-69
2021/06/03 05:40:18;;;;;;;11.35;6.82;;;;;;;18.44;57.36;101782.69;4955873;28;20053;-69
2021/06/03 05:42:45;;;;;;;12.07;6.25;;;;;;;18.79;56.00;101786.44;4955719;28;20043;-69
2021/06/03 05:45:11;;;;;;;11.32;6.40;;;;;;;19.32;55.17;101791.53;4955778;28;20031;-69
2021/06/03 05:47:38;;;;;;;9.90;5.80;;;;;;;18.98;55.78;101784.97;4972174;28;20030;-69
2021/06/03 05:50:05;;;;;;;9.45;5.82;;;;;;;19.60;54.02;101786.16;4972296;28;20042;-69
2021/06/03 05:52:31;;;;;;;9.25;6.05;;;;;;;19.22;53.57;101781.03;4955424;28;20449;-69
2021/06/03 05:54:56;;;;;;;7.93;5.77;;;;;;;20.05;53.16;101788.56;4955290;28;20052;-69
2021/06/03 05:57:21;;;;;;;9.97;5.83;;;;;;;20.03;52.44;101789.56;4972017;28;20449;-70
2021/06/03 05:59:47;;;;;;;8.77;5.83;;;;;;;20.12;51.82;101792.13;4955286;28;20038;-70
2021/06/03 06:02:19;;;;;;;13.40;5.67;;;;;;;20.42;51.98;101788.09;4972587;28;20121;-70
2021/06/03 06:07:28;;;;;;;10.73;5.80;;;;;;;20.77;50.31;101789.94;4972202;28;20035;-69
2021/06/03 06:09:53;;;;;;;7.87;4.97;;;;;;;21.34;49.29;101788.53;4972331;28;20046;-69
2021/06/03 06:12:18;;;;;;;7.63;5.70;;;;;;;21.10;48.98;101789.97;4972549;28;20046;-69
2021/06/03 06:14:44;;;;;;;7.83;5.83;;;;;;;20.35;51.17;101789.13;4955439;28;20042;-69
2021/06/03 06:17:10;;;;;;;10.40;5.70;;;;;;;20.08;51.42;101801.69;4971889;28;20083;-70
2021/06/03 06:19:36;;;;;;;7.28;5.65;;;;;;;20.26;51.79;101806.59;4955512;28;20062;-70
2021/06/03 06:22:02;;;;;;;7.68;5.60;;;;;;;21.37;49.61;101798.97;4959137;28;20482;-70
2021/06/03 06:24:28;;;;;;;11.65;5.32;;;;;;;20.59;50.37;101809.47;4959241;28;20138;-70
2021/06/03 06:26:53;;;;;;;9.00;5.93;;;;;;;21.03;49.68;101800.00;4976106;28;20031;-70
2021/06/03 06:29:18;;;;;;;9.47;5.63;;;;;;;21.26;49.43;101799.63;4959311;28;20137;-70
2021/06/03 06:31:44;;;;;;;8.50;5.00;;;;;;;21.45;48.00;101793.38;4959190;28;20034;-71
2021/06/03 06:34:09;;;;;;;9.20;5.70;;;;;;;20.66;49.00;101800.31;4959312;28;20457;-70
2021/06/03 06:36:34;;;;;;;9.07;4.67;;;;;;;21.56;47.63;101782.91;4975891;28;20042;-70
2021/06/03 06:39:00;;;;;;;7.53;5.60;;;;;;;21.25;49.04;101797.91;4976073;28;20030;-71
2021/06/03 06:41:26;;;;;;;9.60;4.82;;;;;;;22.06;47.70;101803.09;4959057;28;20042;-70
2021/06/03 06:43:51;;;;;;;9.80;5.37;;;;;;;22.05;46.21;101804.13;4976082;28;20050;-71
2021/06/03 06:46:16;;;;;;;13.10;5.43;;;;;;;21.62;46.81;101806.53;4975799;28;20030;-71
2021/06/03 06:48:42;;;;;;;13.33;4.77;;;;;;;22.01;47.44;101800.19;4958936;28;20437;-71
2021/06/03 06:51:08;;;;;;;7.17;5.33;;;;;;;21.97;46.02;101807.09;4959043;28;20066;-71
2021/06/03 06:53:33;;;;;;;10.93;5.40;;;;;;;21.13;48.45;101802.31;4958518;28;20417;-71
2021/06/03 06:55:59;;;;;;;9.27;5.20;;;;;;;20.77;49.58;101817.91;4958600;28;20050;-71
2021/06/03 06:58:25;;;;;;;9.68;4.88;;;;;;;21.22;49.64;101815.47;4975676;28;20034;-71
2021/06/03 07:00:50;;;;;;;8.10;5.63;;;;;;;21.54;48.17;101810.31;4958598;28;20042;-69
2021/06/03 07:03:16;;;;;;;7.50;5.37;;;;;;;21.21;48.54;101824.69;4975647;28;20129;-71
2021/06/03 07:05:42;;;;;;;7.88;5.35;;;;;;;21.53;47.61;101821.38;4958552;28;20045;-70
2021/06/03 07:08:08;;;;;;;7.45;5.13;;;;;;;21.16;49.98;101820.88;4975238;28;20103;-71
2021/06/03 07:10:34;;;;;;;9.33;5.17;;;;;;;21.45;48.79;101815.09;4975606;28;20031;-71
2021/06/03 07:13:00;;;;;;;9.00;4.37;;;;;;;20.72;50.48;101823.09;4958528;28;20278;-71
2021/06/03 07:15:25;;;;;;;5.45;4.90;;;;;;;21.25;48.99;101831.34;4975377;28;20742;-71
2021/06/03 07:17:53;;;;;;;6.87;4.93;;;;;;;22.29;46.97;101826.31;4942078;28;20035;-71
2021/06/03 07:20:19;;;;;;;8.25;5.00;;;;;;;22.60;46.65;101828.28;4958372;28;20066;-71
2021/06/03 07:22:50;;;;;;;7.88;5.22;;;;;;;21.85;47.72;101823.22;4942152;28;20039;-71
2021/06/03 07:25:19;;;;;;;5.70;4.88;;;;;;;21.86;47.27;101830.31;4958274;28;20053;-71
2021/06/03 07:27:44;;;;;;;7.75;5.40;;;;;;;21.73;48.17;101830.34;4942024;28;20082;-71
2021/06/03 07:30:12;;;;;;;8.27;4.65;;;;;;;22.85;47.55;101831.09;4975124;28;20113;-71
2021/06/03 07:32:39;;;;;;;9.60;4.30;;;;;;;22.80;45.62;101836.31;4974717;28;20073;-71
2021/06/03 07:35:09;;;;;;;;;;;;;;;21.88;48.12;101830.94;4975461;28;20461;-71
2021/06/03 07:37:34;;;;;;;10.65;4.85;;;;;;;21.60;48.92;101833.91;4974763;28;19922;-71
2021/06/03 07:40:00;;;;;;;7.77;4.73;;;;;;;22.11;47.66;101827.78;4975027;28;20042;-71
2021/06/03 07:42:25;;;;;;;5.03;4.33;;;;;;;22.08;47.30;101830.09;4975097;28;20286;-72
2021/06/03 07:44:50;;;;;;;9.60;4.60;;;;;;;22.24;47.41;101835.09;4974910;28;20045;-71
2021/06/03 07:47:16;;;;;;;9.73;4.80;;;;;;;22.48;46.81;101846.31;4941767;28;20125;-71
2021/06/03 07:49:42;;;;;;;7.43;4.78;;;;;;;22.03;47.35;101835.31;4941717;28;20093;-71
2021/06/03 07:52:08;;;;;;;7.57;4.27;;;;;;;22.11;47.92;101829.66;4974936;28;20066;-71
2021/06/03 07:54:34;;;;;;;6.72;4.53;;;;;;;21.63;48.08;101828.06;4957837;28;20050;-71
2021/06/03 07:57:00;;;;;;;6.43;4.75;;;;;;;22.36;47.17;101820.81;4974418;28;20432;-71
2021/06/03 07:59:25;;;;;;;8.03;4.63;;;;;;;22.45;46.70;101827.69;4957661;28;20047;-71
2021/06/03 08:01:51;;;;;;;7.63;4.77;;;;;;;22.85;48.24;101824.78;4941728;28;20073;-69
2021/06/03 08:04:18;;;;;;;11.48;5.25;;;;;;;22.55;46.21;101830.81;4974472;28;20133;-71
2021/06/03 08:06:44;;;;;;;6.47;5.35;;;;;;;22.41;47.12;101834.63;4974259;28;20054;-71
2021/06/03 08:09:10;;;;;;;8.98;5.63;;;;;;;22.09;47.24;101835.31;4941574;28;20065;-72
2021/06/03 08:11:35;;;;;;;5.88;5.25;;;;;;;22.16;47.42;101835.28;4957603;28;20038;-71
2021/06/03 08:14:01;;;;;;;6.53;4.65;;;;;;;22.64;46.91;101829.50;4974397;28;20035;-71
2021/06/03 08:16:26;;;;;;;7.90;4.83;;;;;;;22.70;46.90;101834.06;4973771;28;20407;-71
2021/06/03 08:18:52;;;;;;;5.97;4.47;;;;;;;23.57;44.31;101833.53;4974211;28;20961;-71
2021/06/03 08:21:17;;;;;;;6.10;4.30;;;;;;;23.63;45.46;101831.81;4956353;28;20042;-71
2021/06/03 08:23:43;;;;;;;9.97;4.77;;;;;;;23.12;44.96;101820.88;4939915;28;20092;-71
2021/06/03 08:26:08;;;;;;;9.57;5.35;;;;;;;23.60;44.73;101828.47;4956658;28;20306;-71
2021/06/03 08:28:33;;;;;;;7.73;5.17;;;;;;;23.80;44.58;101816.56;4956829;28;20658;-71
2021/06/03 08:31:00;;;;;;;4.80;4.37;;;;;;;23.43;45.88;101830.06;4956791;28;20072;-71
2021/06/03 08:33:27;;;;;;;8.20;3.90;;;;;;;24.41;43.54;101829.31;4973762;28;20026;-71
2021/06/03 08:35:53;;;;;;;6.13;4.65;;;;;;;24.84;41.28;101827.53;4956258;28;20030;-69
2021/06/03 08:38:18;;;;;;;10.23;5.70;;;;;;;24.02;43.27;101831.47;4956861;28;20380;-70
2021/06/03 08:41:02;;;;;;;9.05;5.15;;;;;;;24.56;42.45;101830.84;4940838;28;20042;-70
2021/06/03 08:43:32;;;;;;;5.63;4.00;;;;;;;23.99;42.08;101831.91;4956042;28;20043;-71
2021/06/03 08:45:59;;;;;;;6.43;4.15;;;;;;;24.53;42.41;101831.31;4973484;28;20419;-70
2021/06/03 08:48:25;;;;;;;6.95;4.05;;;;;;;25.38;41.02;101830.34;4956643;28;20122;-70
2021/06/03 08:50:53;;;;;;;6.28;4.13;;;;;;;24.73;40.98;101829.19;4956800;28;20057;-71
2021/06/03 08:53:20;;;;;;;5.00;4.10;;;;;;;24.74;41.42;101825.38;4956204;28;20054;-70
2021/06/03 08:58:30;;;;;;;6.95;4.22;;;;;;;24.04;41.51;101827.66;4956411;28;20058;-71
2021/06/03 09:00:57;;;;;;;9.05;4.45;;;;;;;24.48;42.04;101828.47;4956509;28;20514;-70
2021/06/03 09:03:25;;;;;;;7.25;4.30;;;;;;;24.42;40.43;101831.00;4973481;28;20081;-70
2021/06/03 09:05:51;;;;;;;9.18;4.07;;;;;;;24.65;40.89;101824.03;4956239;28;20523;-71
2021/06/03 09:08:28;;;;;;;6.63;4.20;;;;;;;24.63;40.92;101828.88;4956219;28;20035;-71
2021/06/03 09:11:03;;;;;;;15.55;4.57;;;;;;;24.14;41.52;101834.28;4940360;28;20043;-71
2021/06/03 09:13:31;;;;;;;9.02;4.47;;;;;;;24.17;40.44;101832.97;4973111;28;20076;-70
2021/06/03 09:16:01;;;;;;;6.55;4.25;;;;;;;25.31;40.97;101822.25;4972864;28;20523;-70
2021/06/03 09:18:32;;;;;;;6.60;4.25;;;;;;;24.96;38.03;101816.66;4973098;28;20039;-71
2021/06/03 09:21:14;;;;;;;9.20;3.53;;;;;;;24.71;41.49;101825.84;4940252;28;20035;-70
2021/06/03 09:23:43;;;;;;;8.60;4.03;;;;;;;24.75;41.15;101829.78;4972885;28;20461;-71
2021/06/03 09:26:12;;;;;;;5.72;4.13;;;;;;;25.62;38.36;101821.09;4955949;28;20681;-71
2021/06/03 09:28:48;;;;;;;8.65;3.70;;;;;;;24.87;40.88;101832.56;4956033;28;20093;-71
2021/06/03 09:31:14;;;;;;;7.53;3.80;;;;;;;25.21;39.43;101825.53;4973074;28;20061;-71
2021/06/03 09:33:42;;;;;;;9.43;4.10;;;;;;;25.70;38.67;101826.19;4972825;28;20049;-71
2021/06/03 09:36:09;;;;;;;6.18;4.05;;;;;;;26.59;38.67;101827.09;4955595;28;20039;-71
2021/06/03 09:38:35;;;;;;;5.60;3.53;;;;;;;25.97;37.02;101828.50;4955785;28;20038;-71
2021/06/03 09:41:02;;;;;;;7.03;3.92;;;;;;;26.10;36.72;101820.03;4972937;28;20039;-71
2021/06/03 09:43:27;;;;;;;6.70;3.70;;;;;;;25.20;38.63;101818.44;4955693;28;20049;-71
2021/06/03 09:46:01;;;;;;;5.17;3.67;;;;;;;26.37;37.49;101818.69;4955337;28;20042;-71
2021/06/03 09:48:41;;;;;;;8.43;4.80;;;;;;;25.42;38.13;101826.06;4972335;28;20049;-71
2021/06/03 09:51:21;;;;;;;4.93;3.70;;;;;;;24.88;39.47;101825.19;4972560;28;20069;-70
2021/06/03 09:54:19;;;;;;;5.22;4.10;;;;;;;25.92;37.99;101822.91;4955250;28;20045;-71
2021/06/03 09:56:47;;;;;;;6.03;3.90;;;;;;;26.24;36.86;101817.03;4940617;28;20050;-71
2021/06/03 09:59:36;;;;;;;6.78;3.60;;;;;;;26.30;36.57;101813.34;4955365;28;20054;-71
2021/06/03 10:02:20;;;;;;;7.53;4.38;;;;;;;26.87;35.74;101816.13;4955766;28;20039;-71
2021/06/03 10:04:52;;;;;;;8.43;3.80;;;;;;;26.95;37.03;101815.72;4972519;28;20049;-71
2021/06/03 10:07:19;;;;;;;6.43;3.80;;;;;;;26.44;35.75;101822.09;4972288;28;20059;-71
2021/06/03 10:09:50;;;;;;;5.53;3.53;;;;;;;26.66;36.19;101806.69;4972343;28;20456;-71
2021/06/03 10:12:28;;;;;;;6.28;3.63;;;;;;;26.58;35.65;101809.00;4972530;28;20034;-71
2021/06/03 10:14:56;;;;;;;13.15;4.25;;;;;;;26.45;35.70;101804.59;4955330;28;20591;-71
2021/06/03 10:17:30;;;;;;;5.78;3.58;;;;;;;26.91;37.49;101800.84;4971958;28;20039;-71
2021/06/03 10:19:58;;;;;;;4.95;3.58;;;;;;;26.66;34.69;101797.63;4955137;28;20064;-71
2021/06/03 10:22:27;;;;;;;8.20;3.38;;;;;;;25.93;37.47;101797.22;4939519;28;20484;-71
2021/06/03 10:25:14;;;;;;;5.75;3.15;;;;;;;27.02;36.29;101790.91;4939298;28;20037;-72
2021/06/03 10:27:52;;;;;;;5.50;3.58;;;;;;;27.73;35.41;101795.91;4954971;28;20445;-71
2021/06/03 10:30:21;;;;;;;3.88;3.20;;;;;;;27.39;36.75;101793.19;4972114;28;20026;-72
2021/06/03 10:32:51;;;;;;;6.78;3.58;;;;;;;26.40;36.21;101802.59;4955367;28;20039;-72
2021/06/03 10:35:19;;;;;;;4.93;3.47;;;;;;;25.50;36.45;101806.59;4955226;28;20066;-71
2021/06/03 10:37:47;;;;;;;8.40;3.75;;;;;;;24.74;38.54;101803.53;4955020;28;20035;-71
2021/06/03 10:40:34;;;;;;;5.45;3.60;;;;;;;26.05;36.53;101803.50;4955224;28;20121;-71
2021/06/03 10:43:00;;;;;;;4.70;3.50;;;;;;;26.23;36.20;101804.44;4955079;28;20113;-71
2021/06/03 10:45:28;;;;;;;5.78;3.78;;;;;;;26.98;36.64;101819.06;4955112;28;20519;-72
2021/06/03 10:47:55;;;;;;;8.98;3.80;;;;;;;26.65;35.58;101824.19;4954933;28;20114;-72
2021/06/03 10:50:35;;;;;;;5.93;3.83;;;;;;;26.94;34.38;101821.44;4955023;28;20142;-72
2021/06/03 10:53:12;;;;;;;4.95;3.42;;;;;;;26.02;37.10;101823.13;4972162;28;20557;-72
2021/06/03 10:55:45;;;;;;;7.93;4.32;;;;;;;25.42;38.14;101817.88;4955046;28;20046;-71
2021/06/03 10:58:12;;;;;;;7.60;3.80;;;;;;;26.32;35.79;101822.16;4971778;28;20118;-72
2021/06/03 11:00:43;;;;;;;5.38;3.13;;;;;;;26.92;35.31;101815.38;4955105;28;20088;-72
2021/06/03 11:03:15;;;;;;;4.57;3.03;;;;;;;26.57;34.07;101818.28;4972052;28;20047;-72
2021/06/03 11:05:48;;;;;;;4.60;3.13;;;;;;;26.14;34.75;101814.09;4938881;28;20039;-72
2021/06/03 11:08:41;;;;;;;6.70;4.13;;;;;;;25.56;36.32;101824.78;4975543;28;20408;-71
2021/06/03 11:11:13;;;;;;;4.53;3.40;;;;;;;26.33;33.73;101812.84;4975502;28;20508;-72
2021/06/03 11:14:12;;;;;;;5.70;3.40;;;;;;;26.20;34.27;101821.31;4975597;28;20383;-72
2021/06/03 11:16:38;;;;;;;7.40;3.20;;;;;;;26.75;32.85;101826.31;4968466;28;20053;-72
2021/06/03 11:19:06;;;;;;;5.22;2.90;;;;;;;26.89;34.58;101816.69;4942397;28;20043;-72
2021/06/03 11:21:35;;;;;;;10.80;3.30;;;;;;;26.27;33.75;101830.22;4957875;28;20062;-72
2021/06/03 11:24:01;;;;;;;5.22;3.50;;;;;;;26.74;32.78;101825.47;4957426;28;20090;-72
2021/06/03 11:26:42;;;;;;;5.53;3.20;;;;;;;26.09;34.58;101818.38;4941380;28;20129;-72
2021/06/03 11:29:29;;;;;;;6.18;2.80;;;;;;;26.57;34.63;101824.56;4958294;28;20456;-72
2021/06/03 11:32:03;;;;;;;7.70;3.45;;;;;;;26.25;34.57;101826.91;4958232;28;20457;-72